createdAt,value
2023-05-04T16:04:15.067Z,74.71
2023-05-04T16:04:26.067Z,73.36
2023-05-04T16:04:36.244Z,72.97
2023-05-04T16:04:46.546Z,72.86
2023-05-04T16:04:57.436Z,72.86
2023-05-04T16:05:06.734Z,72.77
2023-05-04T16:05:17.368Z,72.56
2023-05-04T16:05:26.841Z,72.27
2023-05-04T16:05:37.046Z,72.06
2023-05-04T16:05:47.093Z,72.16
2023-05-04T16:06:07.214Z,72.66
2023-05-04T16:06:17.914Z,72.66
2023-05-04T16:06:27.628Z,72.47
2023-05-04T16:06:38.170Z,72.47
2023-05-04T16:06:47.759Z,72.56
2023-05-04T16:06:57.992Z,72.77
2023-05-04T16:07:08.042Z,72.77
2023-05-04T16:07:18.146Z,72.66
2023-05-04T16:07:28.335Z,72.80
2023-05-04T16:07:38.446Z,73.00
2023-05-04T16:07:48.563Z,73.10
2023-05-04T16:07:58.832Z,73.20
2023-05-04T16:08:09.016Z,73.40
2023-05-04T16:08:19.050Z,73.60
2023-05-04T16:08:29.113Z,73.60
2023-05-04T16:08:39.255Z,73.60
2023-05-04T16:08:49.533Z,73.70
2023-05-04T16:08:59.566Z,73.70
2023-05-04T16:09:09.834Z,73.70
2023-05-04T16:09:19.961Z,73.70
2023-05-04T16:09:29.933Z,73.70
2023-05-04T16:09:39.928Z,73.64
2023-05-04T16:09:50.216Z,73.54
2023-05-04T16:10:00.443Z,73.64
2023-05-04T16:10:10.651Z,73.54
2023-05-04T16:10:21.268Z,73.44
2023-05-04T16:10:30.684Z,73.44
2023-05-04T16:10:40.912Z,73.44
2023-05-04T16:10:50.920Z,73.44
2023-05-04T16:11:01.127Z,73.54
2023-05-04T16:11:11.166Z,73.84
2023-05-04T16:11:21.372Z,74.04
2023-05-04T16:11:32.116Z,74.34
2023-05-04T16:11:41.455Z,74.34
2023-05-04T16:11:51.891Z,74.34
2023-05-04T16:12:01.722Z,74.34
2023-05-04T16:12:12.029Z,74.34
2023-05-04T16:12:21.899Z,74.24
2023-05-04T16:12:41.206Z,73.87
2023-05-04T16:12:52.400Z,73.84
2023-05-04T16:13:02.579Z,73.87
2023-05-04T16:13:12.756Z,73.57
2023-05-04T16:13:22.785Z,73.47
2023-05-04T16:13:32.834Z,73.57
2023-05-04T16:13:42.863Z,73.87
2023-05-04T16:13:53.024Z,74.04
2023-05-04T16:14:03.097Z,73.94
2023-05-04T16:14:13.201Z,73.67
2023-05-04T16:14:23.392Z,73.37
2023-05-04T16:14:34.058Z,73.33
2023-05-04T16:14:43.551Z,73.24
2023-05-04T16:14:53.669Z,73.44
2023-05-04T16:15:03.872Z,73.94
2023-05-04T16:15:14.457Z,74.44
2023-05-04T16:15:24.065Z,74.64
2023-05-04T16:15:34.219Z,74.64
2023-05-04T16:15:44.394Z,74.44
2023-05-04T16:15:54.460Z,74.34
2023-05-04T16:16:04.644Z,74.24
2023-05-04T16:16:14.835Z,73.94
2023-05-04T16:16:25.010Z,73.74
2023-05-04T16:16:35.115Z,73.44
2023-05-04T16:16:45.206Z,73.54
2023-05-04T16:16:55.352Z,73.54
2023-05-04T16:17:06.530Z,73.94
2023-05-04T16:17:15.583Z,74.24
2023-05-04T16:17:26.077Z,74.24
2023-05-04T16:17:36.048Z,74.34
2023-05-04T16:17:45.854Z,74.34
2023-05-04T16:17:55.858Z,74.44
2023-05-04T16:18:15.217Z,74.64
2023-05-04T16:18:27.198Z,74.44
2023-05-04T16:18:36.972Z,74.54
2023-05-04T16:18:47.461Z,74.84
2023-05-04T16:18:56.764Z,74.94
2023-05-04T16:19:08.458Z,75.04
2023-05-04T16:19:17.522Z,74.84
2023-05-04T16:19:27.877Z,74.84
2023-05-04T16:19:37.230Z,74.84
2023-05-04T16:19:58.238Z,74.84
2023-05-04T16:20:07.739Z,74.84
2023-05-04T16:20:18.046Z,74.94
2023-05-04T16:20:28.189Z,75.14
2023-05-04T16:20:37.734Z,75.04
2023-05-04T16:20:48.115Z,74.84
2023-05-04T16:20:58.913Z,74.64
2023-05-04T16:21:08.234Z,74.64
2023-05-04T16:21:18.376Z,74.64
2023-05-04T16:21:29.788Z,74.44
2023-05-04T16:21:38.668Z,74.24
2023-05-04T16:21:48.754Z,74.10
2023-05-04T16:21:59.085Z,74.04
2023-05-04T16:22:09.022Z,74.14
2023-05-04T16:22:19.203Z,74.34
2023-05-04T16:22:38.792Z,74.44
2023-05-04T16:22:50.105Z,74.51
2023-05-04T16:23:00.422Z,74.71
2023-05-04T16:23:09.764Z,74.90
2023-05-04T16:23:19.972Z,75.10
2023-05-04T16:23:30.386Z,75.31
2023-05-04T16:23:40.232Z,75.51
2023-05-04T16:23:50.245Z,75.60
2023-05-04T16:24:00.740Z,75.74
2023-05-04T16:24:10.628Z,75.74
2023-05-04T16:24:21.365Z,75.91
2023-05-04T16:24:31.821Z,76.11
2023-05-04T16:24:41.069Z,76.11
2023-05-04T16:24:51.061Z,76.15
2023-05-04T16:25:01.798Z,76.15
2023-05-04T16:25:11.828Z,76.41
2023-05-04T16:25:21.500Z,76.81
2023-05-04T16:25:41.733Z,77.21
2023-05-04T16:25:51.819Z,77.21
2023-05-04T16:26:01.935Z,77.31
2023-05-04T16:26:12.027Z,77.21
2023-05-04T16:26:22.188Z,77.11
2023-05-04T16:26:32.194Z,76.91
2023-05-04T16:26:42.331Z,76.81
2023-05-04T16:26:52.393Z,76.81
2023-05-04T16:27:02.515Z,76.91
2023-05-04T16:27:12.542Z,76.81
2023-05-04T16:27:22.800Z,76.78
2023-05-04T16:27:32.903Z,76.67
2023-05-04T16:27:43.235Z,76.57
2023-05-04T16:27:53.190Z,76.57
2023-05-04T16:28:03.313Z,76.67
2023-05-04T16:28:13.355Z,76.57
2023-05-04T16:28:23.325Z,76.28
2023-05-04T16:28:33.609Z,75.97
2023-05-04T16:28:43.731Z,75.67
2023-05-04T16:28:53.921Z,75.67
2023-05-04T16:29:04.021Z,75.57
2023-05-04T16:29:14.106Z,75.77
2023-05-04T16:29:24.242Z,76.07
2023-05-04T16:29:34.410Z,76.17
2023-05-04T16:29:44.524Z,76.17
2023-05-04T16:29:54.675Z,76.28
2023-05-04T16:30:04.856Z,75.97
2023-05-04T16:30:14.977Z,75.87
2023-05-04T16:30:25.192Z,75.97
2023-05-04T16:30:35.282Z,75.97
2023-05-04T16:30:45.460Z,75.97
2023-05-04T16:30:55.427Z,76.07
2023-05-04T16:31:05.604Z,75.97
2023-05-04T16:31:15.777Z,75.97
2023-05-04T16:31:25.784Z,76.17
2023-05-04T16:31:35.943Z,76.17
2023-05-04T16:31:46.099Z,76.28
2023-05-04T16:31:56.252Z,76.17
2023-05-04T16:32:06.175Z,76.07
2023-05-04T16:32:16.593Z,76.17
2023-05-04T16:32:26.611Z,76.07
2023-05-04T16:32:36.812Z,76.07
2023-05-04T16:32:46.805Z,75.97
2023-05-04T16:32:56.993Z,76.07
2023-05-04T16:33:07.134Z,76.07
2023-05-04T16:33:17.298Z,75.97
2023-05-04T16:33:27.719Z,75.77
2023-05-04T16:33:37.574Z,75.67
2023-05-04T16:33:47.742Z,75.87
2023-05-04T16:33:57.809Z,75.97
2023-05-04T16:34:08.115Z,75.97
2023-05-04T16:34:18.017Z,75.17
2023-05-04T16:34:28.125Z,74.97
2023-05-04T16:34:38.373Z,75.17
2023-05-04T16:34:48.628Z,75.37
2023-05-04T16:34:59.056Z,75.17
2023-05-04T16:35:12.025Z,75.07
2023-05-04T16:35:19.428Z,75.27
2023-05-04T16:35:30.488Z,75.47
2023-05-04T16:35:39.684Z,75.67
2023-05-04T16:35:49.060Z,75.07
2023-05-04T16:35:59.310Z,74.67
2023-05-04T16:36:20.265Z,74.47
2023-05-04T16:36:30.560Z,74.60
2023-05-04T16:36:47.674Z,74.60
2023-05-04T16:36:54.281Z,74.90
2023-05-04T16:37:11.268Z,75.01
2023-05-04T16:37:18.807Z,75.41
2023-05-04T16:37:29.397Z,75.74
2023-05-04T16:37:39.309Z,75.95
2023-05-04T16:37:49.505Z,76.34
2023-05-04T16:38:00.261Z,76.65
2023-05-04T16:38:13.132Z,76.95
2023-05-04T16:38:21.732Z,77.15
2023-05-04T16:38:29.639Z,77.39
2023-05-04T16:38:39.682Z,77.59
2023-05-04T16:38:49.719Z,77.48
2023-05-04T16:39:00.045Z,77.28
2023-05-04T16:39:20.735Z,77.19
2023-05-04T16:39:30.947Z,77.19
2023-05-04T16:39:40.712Z,77.19
2023-05-04T16:39:50.860Z,77.19
2023-05-04T16:40:03.502Z,77.39
2023-05-04T16:40:11.104Z,77.59
2023-05-04T16:40:21.046Z,77.69
2023-05-04T16:40:31.142Z,77.69
2023-05-04T16:40:41.550Z,77.59
2023-05-04T16:40:51.812Z,77.69
2023-05-04T16:41:11.451Z,78.03
2023-05-04T16:41:23.422Z,78.03
2023-05-04T16:41:34.222Z,78.33
2023-05-04T16:41:43.187Z,78.42
2023-05-04T16:41:52.382Z,78.22
2023-05-04T16:42:02.821Z,78.03
2023-05-04T16:42:12.895Z,77.92
2023-05-04T16:42:23.541Z,77.92
2023-05-04T16:42:42.563Z,77.92
2023-05-04T16:42:52.757Z,77.62
2023-05-04T16:43:02.695Z,77.09
2023-05-04T16:43:12.950Z,77.09
2023-05-04T16:43:22.861Z,76.98
2023-05-04T16:43:33.192Z,76.98
2023-05-04T16:43:43.167Z,77.19
2023-05-04T16:43:53.442Z,77.28
2023-05-04T16:44:03.527Z,77.48
2023-05-04T16:44:13.547Z,77.28
2023-05-04T16:44:23.589Z,77.19
2023-05-04T16:44:33.664Z,77.19
2023-05-04T16:44:44.046Z,77.09
2023-05-04T16:44:54.941Z,76.78
2023-05-04T16:45:04.153Z,76.54
2023-05-04T16:45:14.415Z,76.65
2023-05-04T16:45:25.131Z,76.75
2023-05-04T16:45:34.416Z,76.54
2023-05-04T16:45:44.535Z,76.54
2023-05-04T16:46:04.856Z,75.74
2023-05-04T16:46:15.401Z,75.34
2023-05-04T16:46:25.084Z,75.04
2023-05-04T16:46:35.203Z,74.94
2023-05-04T16:46:46.045Z,75.04
2023-05-04T16:46:55.373Z,75.45
2023-05-04T16:47:05.479Z,75.54
2023-05-04T16:47:15.741Z,75.24
2023-05-04T16:47:25.918Z,75.34
2023-05-04T16:47:36.127Z,75.54
2023-05-04T16:47:46.312Z,75.45
2023-05-04T16:47:56.641Z,75.14
2023-05-04T16:48:07.095Z,75.14
2023-05-04T16:48:21.225Z,75.54
2023-05-04T16:48:30.591Z,75.84
2023-05-04T16:48:39.105Z,75.84
2023-05-04T16:48:49.504Z,75.84
2023-05-04T16:49:07.685Z,75.84
2023-05-04T16:49:17.424Z,76.15
2023-05-04T16:49:24.019Z,76.25
2023-05-04T16:49:33.869Z,76.25
2023-05-04T16:49:44.425Z,76.25
2023-05-04T16:50:03.279Z,76.25
2023-05-04T16:50:13.887Z,76.25
2023-05-04T16:50:20.541Z,76.25
2023-05-04T16:50:39.558Z,76.45
2023-05-04T16:50:45.537Z,76.15
2023-05-04T16:50:55.594Z,75.41
2023-05-04T16:51:06.751Z,75.60
2023-05-04T16:51:26.403Z,75.91
2023-05-04T16:51:33.684Z,76.31
2023-05-04T16:51:42.813Z,76.21
2023-05-04T16:51:52.882Z,76.21
2023-05-04T16:52:02.973Z,76.11
2023-05-04T16:52:13.104Z,75.81
2023-05-04T16:52:33.641Z,75.71
2023-05-04T16:52:43.588Z,75.74
2023-05-04T16:52:53.494Z,75.74
2023-05-04T16:53:03.822Z,75.84
2023-05-04T16:53:14.208Z,75.84
2023-05-04T16:53:24.004Z,75.95
2023-05-04T16:53:34.042Z,75.84
2023-05-04T16:53:44.630Z,75.84
2023-05-04T16:53:54.436Z,75.84
2023-05-04T16:54:04.681Z,75.74
2023-05-04T16:54:14.671Z,75.95
2023-05-04T16:54:24.665Z,76.15
2023-05-04T16:54:34.761Z,76.45
2023-05-04T16:54:44.926Z,76.34
2023-05-04T16:54:55.092Z,76.04
2023-05-04T16:55:05.107Z,75.84
2023-05-04T16:55:16.108Z,75.84
2023-05-04T16:55:25.359Z,75.84
2023-05-04T16:55:35.797Z,75.84
2023-05-04T16:55:46.465Z,75.84
2023-05-04T16:55:55.846Z,75.95
2023-05-04T16:56:06.059Z,75.95
2023-05-04T16:56:16.638Z,76.04
2023-05-04T16:56:26.280Z,76.04
2023-05-04T16:56:36.461Z,76.15
2023-05-04T16:56:46.558Z,76.15
2023-05-04T16:56:57.068Z,76.15
2023-05-04T16:57:06.706Z,76.25
2023-05-04T16:57:16.730Z,76.25
2023-05-04T16:57:26.987Z,76.25
2023-05-04T16:57:36.847Z,76.34
2023-05-04T16:57:48.317Z,76.45
2023-05-04T16:57:57.714Z,76.48
2023-05-04T16:58:07.415Z,76.28
2023-05-04T16:58:17.530Z,76.08
2023-05-04T16:58:27.474Z,75.98
2023-05-04T16:58:50.535Z,76.08
2023-05-04T16:58:57.067Z,76.28
2023-05-04T16:59:09.460Z,76.08
2023-05-04T16:59:23.220Z,76.18
2023-05-04T16:59:32.646Z,76.28
2023-05-04T16:59:39.596Z,76.38
2023-05-04T16:59:59.916Z,76.38
2023-05-04T17:00:10.152Z,76.38
2023-05-04T17:00:20.236Z,76.38
2023-05-04T17:00:30.581Z,76.38
2023-05-04T17:00:40.394Z,76.38
2023-05-04T17:00:51.058Z,76.38
2023-05-04T17:01:00.585Z,76.38
2023-05-04T17:01:11.313Z,76.38
2023-05-04T17:01:20.699Z,76.48
2023-05-04T17:01:31.105Z,76.58
2023-05-04T17:01:41.123Z,76.68
2023-05-04T17:01:51.146Z,76.68
2023-05-04T17:02:01.377Z,76.68
2023-05-04T17:02:11.725Z,76.68
2023-05-04T17:02:21.605Z,76.68
2023-05-04T17:02:31.778Z,76.78
2023-05-04T17:02:42.071Z,76.89
2023-05-04T17:02:52.123Z,76.78
2023-05-04T17:03:03.761Z,76.68
2023-05-04T17:03:13.118Z,76.62
2023-05-04T17:03:22.488Z,76.52
2023-05-04T17:03:32.387Z,76.52
2023-05-04T17:03:42.473Z,76.62
2023-05-04T17:03:52.674Z,76.52
2023-05-04T17:04:12.749Z,76.72
2023-05-04T17:04:23.034Z,76.82
2023-05-04T17:04:33.051Z,76.72
2023-05-04T17:04:43.463Z,76.82
2023-05-04T17:04:53.403Z,76.82
